createdAt,value
2023-03-02T00:03:32.596Z,20.98
2023-03-02T00:08:35.803Z,20.96
2023-03-02T00:13:40.202Z,20.93
2023-03-02T00:18:43.058Z,20.91
2023-03-02T00:23:45.977Z,20.87
2023-03-02T00:28:50.124Z,20.84
2023-03-02T00:33:54.959Z,20.79
2023-03-02T00:38:58.215Z,20.77
2023-03-02T00:44:02.424Z,20.74
2023-03-02T00:49:05.208Z,20.71
2023-03-02T00:54:07.987Z,20.66
2023-03-02T00:59:26.183Z,20.65
2023-03-02T01:04:38.348Z,20.59
2023-03-02T01:09:44.680Z,20.59
2023-03-02T01:14:50.788Z,20.55
2023-03-02T01:19:55.258Z,20.52
2023-03-02T01:24:58.758Z,20.49
2023-03-02T01:30:03.012Z,20.48
2023-03-02T01:35:07.808Z,20.46
2023-03-02T01:40:14.089Z,20.41
2023-03-02T01:45:47.079Z,20.37
2023-03-02T01:50:54.824Z,20.34
2023-03-02T01:56:00.043Z,20.31
2023-03-02T02:01:05.782Z,20.29
2023-03-02T02:06:18.141Z,20.26
2023-03-02T02:11:21.119Z,20.23
2023-03-02T02:16:29.883Z,20.21
2023-03-02T02:21:32.887Z,20.17
2023-03-02T02:26:42.397Z,20.12
2023-03-02T02:31:49.001Z,20.11
2023-03-02T02:36:56.981Z,20.11
2023-03-02T02:42:05.180Z,20.06
2023-03-02T02:47:17.420Z,20.04
2023-03-02T02:52:24.507Z,20.05
2023-03-02T02:57:31.495Z,20.01
2023-03-02T03:02:40.854Z,20.01
2023-03-02T03:07:44.121Z,20.00
2023-03-02T03:12:48.816Z,19.98
2023-03-02T03:17:55.970Z,19.96
2023-03-02T03:23:00.787Z,19.94
2023-03-02T03:28:07.256Z,19.93
2023-03-02T03:33:11.961Z,19.89
2023-03-02T03:38:16.029Z,19.89
2023-03-02T03:43:23.844Z,19.86
2023-03-02T03:48:29.608Z,19.85
2023-03-02T03:53:32.486Z,19.81
2023-03-02T03:58:37.532Z,19.81
2023-03-02T04:03:40.947Z,19.78
2023-03-02T04:08:43.750Z,19.77
2023-03-02T04:13:48.830Z,19.75
2023-03-02T04:18:51.947Z,19.75
2023-03-02T04:23:55.447Z,19.70
2023-03-02T04:29:00.605Z,19.69
2023-03-02T04:34:05.030Z,19.64
2023-03-02T04:39:10.185Z,19.63
2023-03-02T04:44:15.342Z,19.60
2023-03-02T04:49:20.178Z,19.64
2023-03-02T04:54:26.878Z,19.63
2023-03-02T04:59:31.105Z,19.61
2023-03-02T05:04:34.494Z,19.60
2023-03-02T05:09:37.358Z,19.55
2023-03-02T05:14:41.470Z,19.56
2023-03-02T05:19:44.401Z,19.53
2023-03-02T05:24:47.158Z,19.54
2023-03-02T05:29:51.475Z,19.51
2023-03-02T05:34:54.268Z,19.51
2023-03-02T05:39:57.045Z,19.49
2023-03-02T05:45:01.303Z,19.48
2023-03-02T05:50:04.487Z,19.47
2023-03-02T05:55:08.429Z,19.45
2023-03-02T06:00:14.958Z,19.43
2023-03-02T06:05:19.602Z,19.41
2023-03-02T06:10:23.001Z,19.40
2023-03-02T06:15:29.714Z,19.39
2023-03-02T06:20:32.540Z,19.39
2023-03-02T06:25:36.943Z,19.37
2023-03-02T06:30:41.093Z,19.37
2023-03-02T06:35:44.003Z,19.37
2023-03-02T06:40:47.686Z,19.36
2023-03-02T06:45:51.926Z,19.31
2023-03-02T06:50:54.975Z,19.35
2023-03-02T06:55:57.762Z,19.36
2023-03-02T07:01:01.989Z,19.36
2023-03-02T07:06:05.268Z,19.30
2023-03-02T07:11:11.536Z,19.35
2023-03-02T07:16:16.800Z,19.35
2023-03-02T07:21:19.788Z,19.35
2023-03-02T07:26:22.858Z,19.34
2023-03-02T07:31:27.042Z,19.32
2023-03-02T07:36:29.992Z,19.30
2023-03-02T07:41:33.267Z,19.32
2023-03-02T07:46:39.145Z,19.32
2023-03-02T07:51:42.097Z,19.32
2023-03-02T07:56:46.094Z,19.19
2023-03-02T08:01:50.613Z,15.59
2023-03-02T08:06:53.787Z,14.29
2023-03-02T08:11:56.664Z,14.90
2023-03-02T08:17:00.806Z,17.20
2023-03-02T08:22:03.799Z,18.14
2023-03-02T08:27:06.672Z,18.53
2023-03-02T08:32:11.118Z,18.80
2023-03-02T08:37:13.973Z,19.00
2023-03-02T08:42:17.840Z,19.20
2023-03-02T08:47:22.049Z,19.35
2023-03-02T08:52:24.873Z,19.49
2023-03-02T08:57:27.677Z,19.61
2023-03-02T09:02:31.824Z,19.68
2023-03-02T09:07:34.650Z,19.76
2023-03-02T09:12:37.619Z,19.85
2023-03-02T09:17:41.804Z,19.92
2023-03-02T09:22:48.608Z,19.96
2023-03-02T09:27:51.383Z,20.01
2023-03-02T09:32:55.830Z,20.07
2023-03-02T09:37:58.687Z,20.10
2023-03-02T09:43:30.309Z,20.13
2023-03-02T09:48:41.702Z,20.16
2023-03-02T09:53:52.378Z,20.19
2023-03-02T09:59:00.057Z,20.21
2023-03-02T10:04:16.537Z,20.22
2023-03-02T10:09:19.601Z,20.22
2023-03-02T10:14:28.069Z,20.26
2023-03-02T10:19:42.153Z,20.29
2023-03-02T10:24:51.269Z,20.32
2023-03-02T10:30:00.900Z,20.34
2023-03-02T10:35:17.211Z,20.38
2023-03-02T10:40:42.946Z,20.42
2023-03-02T10:45:46.386Z,20.44
2023-03-02T10:50:55.078Z,20.49
2023-03-02T10:55:57.884Z,20.54
2023-03-02T11:01:02.714Z,20.56
2023-03-02T11:06:22.453Z,20.62
2023-03-02T11:11:26.398Z,20.66
2023-03-02T11:16:33.294Z,20.69
2023-03-02T11:21:42.226Z,20.74
2023-03-02T11:26:48.371Z,20.79
2023-03-02T11:31:54.624Z,20.83
2023-03-02T11:37:05.233Z,19.70
2023-03-02T11:42:19.902Z,19.96
2023-03-02T11:47:24.230Z,20.33
2023-03-02T11:52:33.073Z,20.54
2023-03-02T11:57:40.099Z,20.72
2023-03-02T12:02:42.867Z,20.85
2023-03-02T12:07:58.692Z,20.93
2023-03-02T12:13:14.568Z,21.00
2023-03-02T12:18:47.433Z,21.00
2023-03-02T12:24:01.578Z,21.16
2023-03-02T12:29:08.507Z,21.31
2023-03-02T12:34:32.320Z,21.40
2023-03-02T12:40:01.489Z,21.43
2023-03-02T12:45:15.414Z,21.42
2023-03-02T12:50:21.943Z,21.48
2023-03-02T12:55:26.261Z,21.55
2023-03-02T13:00:31.142Z,21.58
2023-03-02T13:05:36.964Z,21.60
2023-03-02T13:10:43.065Z,21.69
2023-03-02T13:15:50.901Z,21.69
2023-03-02T13:20:54.657Z,21.62
2023-03-02T13:26:00.468Z,21.57
2023-03-02T13:31:05.623Z,21.59
2023-03-02T13:36:09.135Z,21.70
2023-03-02T13:41:23.041Z,21.61
2023-03-02T13:46:28.816Z,21.66
2023-03-02T13:51:34.680Z,21.78
2023-03-02T13:56:41.449Z,21.87
2023-03-02T14:01:44.758Z,21.86
2023-03-02T14:06:48.081Z,21.96
2023-03-02T14:11:55.941Z,22.15
2023-03-02T14:16:58.745Z,20.29
2023-03-02T14:22:01.530Z,19.11
2023-03-02T14:27:05.719Z,18.82
2023-03-02T14:32:11.711Z,18.74
2023-03-02T14:37:18.007Z,18.81
2023-03-02T14:42:22.971Z,18.15
2023-03-02T14:47:25.778Z,18.06
2023-03-02T14:52:34.039Z,17.64
2023-03-02T14:57:39.203Z,18.31
2023-03-02T15:02:42.228Z,19.87
2023-03-02T15:07:45.056Z,18.69
2023-03-02T15:12:49.316Z,18.42
2023-03-02T15:17:52.073Z,18.36
2023-03-02T15:22:54.851Z,18.40
2023-03-02T15:27:59.225Z,18.09
2023-03-02T15:33:01.984Z,17.96
2023-03-02T15:38:04.865Z,17.61
2023-03-02T15:43:09.261Z,18.95
2023-03-02T15:48:13.571Z,18.99
2023-03-02T15:53:16.528Z,19.72
2023-03-02T15:58:21.800Z,19.81
2023-03-02T16:03:25.033Z,19.75
2023-03-02T16:08:28.067Z,20.32
2023-03-02T16:13:32.726Z,20.69
2023-03-02T16:18:35.662Z,20.82
2023-03-02T16:23:38.571Z,20.79
2023-03-02T16:28:43.189Z,20.96
2023-03-02T16:33:46.890Z,20.95
2023-03-02T16:38:49.745Z,21.02
2023-03-02T16:43:55.717Z,21.02
2023-03-02T16:48:59.606Z,20.97
2023-03-02T16:54:02.449Z,20.92
2023-03-02T16:59:06.584Z,20.84
2023-03-02T17:04:09.636Z,20.91
2023-03-02T17:09:13.604Z,20.93
2023-03-02T17:14:17.839Z,20.79
2023-03-02T17:19:20.840Z,20.81
2023-03-02T17:24:23.699Z,20.82
2023-03-02T17:29:27.932Z,20.84
2023-03-02T17:34:31.315Z,20.87
2023-03-02T17:39:34.077Z,20.91
2023-03-02T17:44:40.645Z,20.95
2023-03-02T17:49:45.122Z,20.98
2023-03-02T17:54:47.891Z,21.01
2023-03-02T17:59:52.074Z,21.06
2023-03-02T18:04:54.850Z,21.10
2023-03-02T18:09:57.910Z,21.12
2023-03-02T18:15:02.476Z,21.14
2023-03-02T18:20:05.995Z,21.16
2023-03-02T18:25:09.595Z,21.20
2023-03-02T18:30:14.689Z,21.23
2023-03-02T18:35:19.369Z,21.24
2023-03-02T18:40:22.370Z,21.28
2023-03-02T18:45:28.840Z,21.29
2023-03-02T18:50:31.764Z,21.32
2023-03-02T18:55:34.516Z,21.34
2023-03-02T19:00:38.722Z,21.37
2023-03-02T19:05:42.401Z,21.36
2023-03-02T19:10:45.244Z,21.33
2023-03-02T19:15:49.605Z,21.36
2023-03-02T19:20:54.263Z,21.44
2023-03-02T19:25:57.290Z,21.50
2023-03-02T19:31:04.578Z,21.49
2023-03-02T19:36:08.477Z,21.55
2023-03-02T19:41:13.919Z,21.55
2023-03-02T19:46:19.113Z,21.59
2023-03-02T19:51:22.044Z,21.62
2023-03-02T19:56:29.995Z,21.62
2023-03-02T20:01:34.343Z,21.61
2023-03-02T20:06:37.335Z,21.64
2023-03-02T20:11:40.460Z,21.70
2023-03-02T20:16:45.050Z,21.68
2023-03-02T20:21:48.250Z,21.70
2023-03-02T20:26:51.665Z,21.71
2023-03-02T20:31:58.241Z,21.70
2023-03-02T20:37:03.216Z,21.71
2023-03-02T20:42:08.029Z,21.75
2023-03-02T20:47:15.077Z,21.74
2023-03-02T20:52:18.855Z,21.76
2023-03-02T20:57:23.385Z,21.76
2023-03-02T21:02:28.164Z,21.82
2023-03-02T21:07:31.537Z,21.79
2023-03-02T21:12:34.932Z,21.81
2023-03-02T21:17:39.398Z,21.84
2023-03-02T21:22:42.481Z,21.79
2023-03-02T21:27:46.402Z,21.87
2023-03-02T21:32:51.265Z,21.77
2023-03-02T21:37:57.862Z,21.82
2023-03-02T21:43:01.771Z,21.85
2023-03-02T21:48:07.266Z,21.83
2023-03-02T21:53:10.278Z,21.85
2023-03-02T21:58:13.310Z,21.87
2023-03-02T22:03:17.840Z,21.90
2023-03-02T22:08:22.170Z,21.88
2023-03-02T22:13:27.181Z,21.88
2023-03-02T22:18:32.454Z,21.84
2023-03-02T22:23:35.199Z,21.79
2023-03-02T22:28:40.909Z,21.73
2023-03-02T22:33:45.084Z,21.71
2023-03-02T22:38:47.917Z,21.68
2023-03-02T22:43:53.025Z,21.69
2023-03-02T22:48:57.575Z,21.67
2023-03-02T22:54:01.697Z,21.65
2023-03-02T22:59:10.152Z,21.63
2023-03-02T23:04:19.486Z,21.61
2023-03-02T23:09:24.731Z,21.54
2023-03-02T23:14:30.105Z,21.45
2023-03-02T23:19:34.264Z,21.40
2023-03-02T23:24:37.427Z,21.30
2023-03-02T23:29:40.842Z,21.21
2023-03-02T23:34:45.164Z,21.13
2023-03-02T23:39:48.308Z,21.09
2023-03-02T23:44:51.157Z,21.04
2023-03-02T23:49:55.400Z,21.00
2023-03-02T23:54:59.068Z,20.94
